sensor_id;sensor_type;location;lat;lon;timestamp;temperature;humidity
42803;DHT22;28447;48.682;9.022;2023-08-07T04:00:16;10.80;99.90
42803;DHT22;28447;48.682;9.022;2023-08-07T04:02:41;10.70;99.90
42803;DHT22;28447;48.682;9.022;2023-08-07T04:05:07;10.80;99.90
42803;DHT22;28447;48.682;9.022;2023-08-07T04:07:33;10.70;99.90
42803;DHT22;28447;48.682;9.022;2023-08-07T04:09:58;10.70;99.90
42803;DHT22;28447;48.682;9.022;2023-08-07T04:12:24;10.70;99.90
42803;DHT22;28447;48.682;9.022;2023-08-07T04:14:49;10.60;99.90
42803;DHT22;28447;48.682;9.022;2023-08-07T04:17:15;10.60;99.90
42803;DHT22;28447;48.682;9.022;2023-08-07T04:19:41;10.60;99.90
42803;DHT22;28447;48.682;9.022;2023-08-07T04:22:07;10.60;99.90
42803;DHT22;28447;48.682;9.022;2023-08-07T04:24:32;10.60;99.90
42803;DHT22;28447;48.682;9.022;2023-08-07T04:26:58;10.60;99.90
42803;DHT22;28447;48.682;9.022;2023-08-07T04:29:24;10.60;99.90
42803;DHT22;28447;48.682;9.022;2023-08-07T04:31:50;10.50;99.90
42803;DHT22;28447;48.682;9.022;2023-08-07T04:34:16;10.50;99.90
42803;DHT22;28447;48.682;9.022;2023-08-07T04:36:41;10.50;99.90
42803;DHT22;28447;48.682;9.022;2023-08-07T04:39:07;10.50;99.90
42803;DHT22;28447;48.682;9.022;2023-08-07T04:41:33;10.50;99.90
42803;DHT22;28447;48.682;9.022;2023-08-07T04:43:58;10.40;99.90
42803;DHT22;28447;48.682;9.022;2023-08-07T04:46:24;10.40;99.90
42803;DHT22;28447;48.682;9.022;2023-08-07T04:48:50;10.40;99.90
42803;DHT22;28447;48.682;9.022;2023-08-07T04:51:15;10.40;99.90
42803;DHT22;28447;48.682;9.022;2023-08-07T04:53:41;10.50;99.90
42803;DHT22;28447;48.682;9.022;2023-08-07T04:56:07;10.50;99.90
42803;DHT22;28447;48.682;9.022;2023-08-07T04:58:32;10.50;99.90
42803;DHT22;28447;48.682;9.022;2023-08-07T05:00:58;10.60;99.90
42803;DHT22;28447;48.682;9.022;2023-08-07T05:03:24;10.60;99.90
42803;DHT22;28447;48.682;9.022;2023-08-07T05:05:58;10.70;99.90
42803;DHT22;28447;48.682;9.022;2023-08-07T05:08:24;10.70;99.90
42803;DHT22;28447;48.682;9.022;2023-08-07T05:10:49;10.70;99.90
42803;DHT22;28447;48.682;9.022;2023-08-07T05:13:15;10.70;99.90
42803;DHT22;28447;48.682;9.022;2023-08-07T05:15:41;10.80;99.90
42803;DHT22;28447;48.682;9.022;2023-08-07T05:18:06;10.90;99.90
42803;DHT22;28447;48.682;9.022;2023-08-07T05:20:32;10.90;99.90
42803;DHT22;28447;48.682;9.022;2023-08-07T05:22:58;11.00;99.90
42803;DHT22;28447;48.682;9.022;2023-08-07T05:25:23;11.10;99.90
42803;DHT22;28447;48.682;9.022;2023-08-07T05:27:49;11.20;99.90
42803;DHT22;28447;48.682;9.022;2023-08-07T05:30:15;11.20;99.90
42803;DHT22;28447;48.682;9.022;2023-08-07T05:32:40;11.20;99.90
42803;DHT22;28447;48.682;9.022;2023-08-07T05:35:07;11.20;99.90
42803;DHT22;28447;48.682;9.022;2023-08-07T05:37:34;11.30;99.90
42803;DHT22;28447;48.682;9.022;2023-08-07T05:40:01;11.30;99.90
42803;DHT22;28447;48.682;9.022;2023-08-07T05:42:27;11.40;99.90
42803;DHT22;28447;48.682;9.022;2023-08-07T05:44:53;11.40;99.90
42803;DHT22;28447;48.682;9.022;2023-08-07T05:47:19;11.50;99.90
42803;DHT22;28447;48.682;9.022;2023-08-07T05:49:44;11.60;99.90
42803;DHT22;28447;48.682;9.022;2023-08-07T05:52:10;11.70;99.90
42803;DHT22;28447;48.682;9.022;2023-08-07T05:54:36;11.80;99.90
42803;DHT22;28447;48.682;9.022;2023-08-07T05:57:01;11.90;99.90
42803;DHT22;28447;48.682;9.022;2023-08-07T05:59:27;11.80;99.90
42803;DHT22;28447;48.682;9.022;2023-08-07T06:01:53;11.90;99.90
42803;DHT22;28447;48.682;9.022;2023-08-07T06:04:18;11.90;99.90
42803;DHT22;28447;48.682;9.022;2023-08-07T06:06:44;12.00;99.90
42803;DHT22;28447;48.682;9.022;2023-08-07T06:09:11;12.00;99.90
42803;DHT22;28447;48.682;9.022;2023-08-07T06:11:38;12.10;99.90
42803;DHT22;28447;48.682;9.022;2023-08-07T06:14:03;12.20;99.90
42803;DHT22;28447;48.682;9.022;2023-08-07T06:16:29;12.20;99.90
42803;DHT22;28447;48.682;9.022;2023-08-07T06:18:55;12.30;99.90
42803;DHT22;28447;48.682;9.022;2023-08-07T06:21:20;12.40;99.90
42803;DHT22;28447;48.682;9.022;2023-08-07T06:23:46;12.40;99.90
42803;DHT22;28447;48.682;9.022;2023-08-07T06:26:12;12.40;99.90
42803;DHT22;28447;48.682;9.022;2023-08-07T06:28:38;12.40;99.90
42803;DHT22;28447;48.682;9.022;2023-08-07T06:31:05;12.40;99.90
42803;DHT22;28447;48.682;9.022;2023-08-07T06:33:32;12.40;99.90
42803;DHT22;28447;48.682;9.022;2023-08-07T06:35:59;12.40;99.90
42803;DHT22;28447;48.682;9.022;2023-08-07T06:38:24;12.30;99.90
42803;DHT22;28447;48.682;9.022;2023-08-07T06:40:50;12.50;99.90
42803;DHT22;28447;48.682;9.022;2023-08-07T06:43:16;12.50;99.90
42803;DHT22;28447;48.682;9.022;2023-08-07T06:45:41;12.50;99.90
42803;DHT22;28447;48.682;9.022;2023-08-07T06:48:07;12.60;99.90
42803;DHT22;28447;48.682;9.022;2023-08-07T06:50:32;12.70;99.90
42803;DHT22;28447;48.682;9.022;2023-08-07T06:52:58;12.70;99.90
42803;DHT22;28447;48.682;9.022;2023-08-07T06:55:25;12.70;99.90
42803;DHT22;28447;48.682;9.022;2023-08-07T06:57:51;12.70;99.90
42803;DHT22;28447;48.682;9.022;2023-08-07T07:00:16;12.70;99.90
42803;DHT22;28447;48.682;9.022;2023-08-07T07:02:42;12.80;99.90
42803;DHT22;28447;48.682;9.022;2023-08-07T07:05:08;12.80;99.90
42803;DHT22;28447;48.682;9.022;2023-08-07T07:07:34;12.80;99.90
42803;DHT22;28447;48.682;9.022;2023-08-07T07:10:00;12.90;99.90
42803;DHT22;28447;48.682;9.022;2023-08-07T07:12:27;12.80;99.90
42803;DHT22;28447;48.682;9.022;2023-08-07T07:14:53;12.80;99.90
42803;DHT22;28447;48.682;9.022;2023-08-07T07:17:18;12.70;99.90
42803;DHT22;28447;48.682;9.022;2023-08-07T07:19:44;12.70;99.90
42803;DHT22;28447;48.682;9.022;2023-08-07T07:22:10;13.10;99.90
42803;DHT22;28447;48.682;9.022;2023-08-07T07:24:35;13.20;99.90
42803;DHT22;28447;48.682;9.022;2023-08-07T07:27:01;13.50;99.90
42803;DHT22;28447;48.682;9.022;2023-08-07T07:29:27;13.50;99.90
42803;DHT22;28447;48.682;9.022;2023-08-07T07:31:52;13.90;99.90
42803;DHT22;28447;48.682;9.022;2023-08-07T07:34:20;14.10;99.90
42803;DHT22;28447;48.682;9.022;2023-08-07T07:36:46;14.50;99.90
42803;DHT22;28447;48.682;9.022;2023-08-07T07:39:12;14.50;99.90
42803;DHT22;28447;48.682;9.022;2023-08-07T07:41:37;14.70;99.90
42803;DHT22;28447;48.682;9.022;2023-08-07T07:44:03;14.70;99.90
42803;DHT22;28447;48.682;9.022;2023-08-07T07:46:29;15.00;99.90
42803;DHT22;28447;48.682;9.022;2023-08-07T07:48:55;15.10;99.90
42803;DHT22;28447;48.682;9.022;2023-08-07T07:51:22;14.40;99.90
42803;DHT22;28447;48.682;9.022;2023-08-07T07:53:47;14.60;99.90
42803;DHT22;28447;48.682;9.022;2023-08-07T07:56:13;14.60;99.90
42803;DHT22;28447;48.682;9.022;2023-08-07T07:58:39;14.50;99.90
42803;DHT22;28447;48.682;9.022;2023-08-07T08:01:06;14.50;99.90
42803;DHT22;28447;48.682;9.022;2023-08-07T08:03:32;14.70;99.90
42803;DHT22;28447;48.682;9.022;2023-08-07T08:05:58;14.90;99.90
42803;DHT22;28447;48.682;9.022;2023-08-07T08:08:23;15.10;99.90
42803;DHT22;28447;48.682;9.022;2023-08-07T08:10:49;15.30;99.90
42803;DHT22;28447;48.682;9.022;2023-08-07T08:13:16;15.10;99.90
42803;DHT22;28447;48.682;9.022;2023-08-07T08:15:43;15.00;99.90
42803;DHT22;28447;48.682;9.022;2023-08-07T08:18:09;15.40;99.90
42803;DHT22;28447;48.682;9.022;2023-08-07T08:20:36;15.10;99.90
42803;DHT22;28447;48.682;9.022;2023-08-07T08:23:01;15.50;99.90
42803;DHT22;28447;48.682;9.022;2023-08-07T08:25:27;15.30;99.90
42803;DHT22;28447;48.682;9.022;2023-08-07T08:27:52;15.50;99.90
42803;DHT22;28447;48.682;9.022;2023-08-07T08:30:18;15.50;99.90
42803;DHT22;28447;48.682;9.022;2023-08-07T08:32:44;15.50;99.90
42803;DHT22;28447;48.682;9.022;2023-08-07T08:35:09;16.10;99.90
42803;DHT22;28447;48.682;9.022;2023-08-07T08:37:35;15.60;99.90
42803;DHT22;28447;48.682;9.022;2023-08-07T08:40:01;16.10;99.90
42803;DHT22;28447;48.682;9.022;2023-08-07T08:42:27;16.50;99.90
42803;DHT22;28447;48.682;9.022;2023-08-07T08:44:56;16.00;99.90
42803;DHT22;28447;48.682;9.022;2023-08-07T08:47:23;16.20;99.90
42803;DHT22;28447;48.682;9.022;2023-08-07T08:49:55;16.30;99.90
42803;DHT22;28447;48.682;9.022;2023-08-07T08:52:23;15.70;99.90
42803;DHT22;28447;48.682;9.022;2023-08-07T08:54:50;16.10;99.90
42803;DHT22;28447;48.682;9.022;2023-08-07T08:57:16;16.40;99.90
42803;DHT22;28447;48.682;9.022;2023-08-07T08:59:42;16.50;99.90
42803;DHT22;28447;48.682;9.022;2023-08-07T09:02:09;16.50;99.90
42803;DHT22;28447;48.682;9.022;2023-08-07T09:04:36;15.80;99.90
42803;DHT22;28447;48.682;9.022;2023-08-07T09:07:02;15.60;99.90
42803;DHT22;28447;48.682;9.022;2023-08-07T09:09:28;15.90;99.90
42803;DHT22;28447;48.682;9.022;2023-08-07T09:11:57;16.40;99.90
42803;DHT22;28447;48.682;9.022;2023-08-07T09:14:26;16.50;99.90
42803;DHT22;28447;48.682;9.022;2023-08-07T09:16:58;16.70;99.90
42803;DHT22;28447;48.682;9.022;2023-08-07T09:19:25;17.20;99.90
42803;DHT22;28447;48.682;9.022;2023-08-07T09:21:51;16.50;99.90
42803;DHT22;28447;48.682;9.022;2023-08-07T09:24:17;17.00;99.90
42803;DHT22;28447;48.682;9.022;2023-08-07T09:26:45;16.90;99.90
42803;DHT22;28447;48.682;9.022;2023-08-07T09:29:11;17.00;99.90
42803;DHT22;28447;48.682;9.022;2023-08-07T09:31:37;16.90;99.90
42803;DHT22;28447;48.682;9.022;2023-08-07T09:34:04;16.40;99.90
42803;DHT22;28447;48.682;9.022;2023-08-07T09:36:31;16.00;99.90
42803;DHT22;28447;48.682;9.022;2023-08-07T09:39:00;16.40;99.90
42803;DHT22;28447;48.682;9.022;2023-08-07T09:41:26;16.60;99.90
42803;DHT22;28447;48.682;9.022;2023-08-07T09:43:54;16.70;99.90
42803;DHT22;28447;48.682;9.022;2023-08-07T09:46:19;16.10;99.90
42803;DHT22;28447;48.682;9.022;2023-08-07T09:48:45;16.20;99.90
42803;DHT22;28447;48.682;9.022;2023-08-07T09:51:11;16.20;99.90
42803;DHT22;28447;48.682;9.022;2023-08-07T09:53:37;16.10;99.90
42803;DHT22;28447;48.682;9.022;2023-08-07T09:56:03;16.20;99.90
42803;DHT22;28447;48.682;9.022;2023-08-07T09:58:29;16.10;99.90
42803;DHT22;28447;48.682;9.022;2023-08-07T10:00:55;15.90;99.90
42803;DHT22;28447;48.682;9.022;2023-08-07T10:03:25;16.10;99.90
42803;DHT22;28447;48.682;9.022;2023-08-07T10:05:51;16.30;99.90
42803;DHT22;28447;48.682;9.022;2023-08-07T10:08:18;15.90;99.90
42803;DHT22;28447;48.682;9.022;2023-08-07T10:10:44;15.60;99.90
42803;DHT22;28447;48.682;9.022;2023-08-07T10:13:12;15.40;99.90
42803;DHT22;28447;48.682;9.022;2023-08-07T10:15:39;15.70;99.90
42803;DHT22;28447;48.682;9.022;2023-08-07T10:18:06;16.50;99.90
42803;DHT22;28447;48.682;9.022;2023-08-07T10:20:32;17.50;99.90
42803;DHT22;28447;48.682;9.022;2023-08-07T10:23:04;16.80;99.90
42803;DHT22;28447;48.682;9.022;2023-08-07T10:25:32;17.00;99.90
42803;DHT22;28447;48.682;9.022;2023-08-07T10:28:01;16.40;99.90
42803;DHT22;28447;48.682;9.022;2023-08-07T10:30:27;16.40;99.90
42803;DHT22;28447;48.682;9.022;2023-08-07T10:32:54;15.90;99.90
42803;DHT22;28447;48.682;9.022;2023-08-07T10:35:33;16.20;99.90
42803;DHT22;28447;48.682;9.022;2023-08-07T10:38:09;16.60;99.90
42803;DHT22;28447;48.682;9.022;2023-08-07T10:40:58;16.50;99.90
42803;DHT22;28447;48.682;9.022;2023-08-07T10:43:25;16.50;99.90
42803;DHT22;28447;48.682;9.022;2023-08-07T10:45:53;16.80;99.90
42803;DHT22;28447;48.682;9.022;2023-08-07T10:48:19;16.40;99.90
42803;DHT22;28447;48.682;9.022;2023-08-07T10:50:51;16.10;99.90
42803;DHT22;28447;48.682;9.022;2023-08-07T10:53:35;16.10;99.90
42803;DHT22;28447;48.682;9.022;2023-08-07T10:56:07;16.20;99.90
42803;DHT22;28447;48.682;9.022;2023-08-07T10:58:35;16.10;99.90
42803;DHT22;28447;48.682;9.022;2023-08-07T11:04:05;17.10;99.90
42803;DHT22;28447;48.682;9.022;2023-08-07T11:06:33;17.20;99.90
42803;DHT22;28447;48.682;9.022;2023-08-07T11:09:04;16.70;99.90
42803;DHT22;28447;48.682;9.022;2023-08-07T11:11:41;16.80;99.90
42803;DHT22;28447;48.682;9.022;2023-08-07T11:14:11;17.00;99.90
42803;DHT22;28447;48.682;9.022;2023-08-07T11:16:38;16.60;99.90
42803;DHT22;28447;48.682;9.022;2023-08-07T11:19:04;16.60;99.90
42803;DHT22;28447;48.682;9.022;2023-08-07T11:21:33;16.40;99.90
42803;DHT22;28447;48.682;9.022;2023-08-07T11:24:00;16.50;99.90
42803;DHT22;28447;48.682;9.022;2023-08-07T11:26:27;16.10;99.90
42803;DHT22;28447;48.682;9.022;2023-08-07T11:28:56;16.20;99.90
42803;DHT22;28447;48.682;9.022;2023-08-07T11:31:22;16.40;99.90
42803;DHT22;28447;48.682;9.022;2023-08-07T11:33:54;16.60;99.90
42803;DHT22;28447;48.682;9.022;2023-08-07T11:36:21;16.30;99.90
42803;DHT22;28447;48.682;9.022;2023-08-07T11:38:47;16.20;99.90
42803;DHT22;28447;48.682;9.022;2023-08-07T11:41:16;15.90;99.90
42803;DHT22;28447;48.682;9.022;2023-08-07T11:43:43;15.80;99.90
42803;DHT22;28447;48.682;9.022;2023-08-07T11:46:11;15.70;99.90
42803;DHT22;28447;48.682;9.022;2023-08-07T11:48:39;15.50;99.90
42803;DHT22;28447;48.682;9.022;2023-08-07T11:51:05;15.50;99.90
42803;DHT22;28447;48.682;9.022;2023-08-07T11:53:33;15.40;99.90
42803;DHT22;28447;48.682;9.022;2023-08-07T11:58:27;15.40;99.90
42803;DHT22;28447;48.682;9.022;2023-08-07T12:00:53;15.40;99.90
42803;DHT22;28447;48.682;9.022;2023-08-07T12:03:29;15.50;99.90
42803;DHT22;28447;48.682;9.022;2023-08-07T12:05:59;15.50;99.90
42803;DHT22;28447;48.682;9.022;2023-08-07T12:11:02;15.30;99.90
42803;DHT22;28447;48.682;9.022;2023-08-07T12:13:28;15.20;99.90
42803;DHT22;28447;48.682;9.022;2023-08-07T12:15:55;15.10;99.90
42803;DHT22;28447;48.682;9.022;2023-08-07T12:18:22;14.90;99.90
42803;DHT22;28447;48.682;9.022;2023-08-07T12:20:51;14.60;99.90
42803;DHT22;28447;48.682;9.022;2023-08-07T12:23:17;14.40;99.90
42803;DHT22;28447;48.682;9.022;2023-08-07T12:25:44;14.20;99.90
42803;DHT22;28447;48.682;9.022;2023-08-07T12:28:09;14.30;99.90
42803;DHT22;28447;48.682;9.022;2023-08-07T12:30:35;14.50;99.90
42803;DHT22;28447;48.682;9.022;2023-08-07T12:33:01;14.60;99.90
42803;DHT22;28447;48.682;9.022;2023-08-07T12:35:30;14.90;99.90
42803;DHT22;28447;48.682;9.022;2023-08-07T12:37:56;15.30;99.90
42803;DHT22;28447;48.682;9.022;2023-08-07T12:40:21;15.20;99.90
42803;DHT22;28447;48.682;9.022;2023-08-07T12:42:48;15.10;99.90
42803;DHT22;28447;48.682;9.022;2023-08-07T12:45:15;15.20;99.90
42803;DHT22;28447;48.682;9.022;2023-08-07T12:47:41;15.00;99.90
42803;DHT22;28447;48.682;9.022;2023-08-07T12:50:10;15.00;99.90
42803;DHT22;28447;48.682;9.022;2023-08-07T12:52:36;14.90;99.90
42803;DHT22;28447;48.682;9.022;2023-08-07T12:55:02;14.90;99.90
42803;DHT22;28447;48.682;9.022;2023-08-07T12:57:27;14.80;99.90
42803;DHT22;28447;48.682;9.022;2023-08-07T12:59:53;14.60;99.90
42803;DHT22;28447;48.682;9.022;2023-08-07T13:02:19;14.50;99.90
42803;DHT22;28447;48.682;9.022;2023-08-07T13:04:44;14.70;99.90
42803;DHT22;28447;48.682;9.022;2023-08-07T13:07:11;14.90;99.90
42803;DHT22;28447;48.682;9.022;2023-08-07T13:09:36;15.10;99.90
42803;DHT22;28447;48.682;9.022;2023-08-07T13:12:02;15.60;99.90
42803;DHT22;28447;48.682;9.022;2023-08-07T13:14:28;16.00;99.90
42803;DHT22;28447;48.682;9.022;2023-08-07T13:16:53;16.00;99.90
42803;DHT22;28447;48.682;9.022;2023-08-07T13:19:19;16.20;99.90
42803;DHT22;28447;48.682;9.022;2023-08-07T13:21:45;16.30;99.90
42803;DHT22;28447;48.682;9.022;2023-08-07T13:24:10;16.60;99.90
42803;DHT22;28447;48.682;9.022;2023-08-07T13:26:36;17.00;99.90
42803;DHT22;28447;48.682;9.022;2023-08-07T13:29:03;17.00;99.90
42803;DHT22;28447;48.682;9.022;2023-08-07T13:31:28;16.40;99.90
42803;DHT22;28447;48.682;9.022;2023-08-07T13:33:54;16.30;99.90
42803;DHT22;28447;48.682;9.022;2023-08-07T13:36:19;16.20;99.90
42803;DHT22;28447;48.682;9.022;2023-08-07T13:38:45;16.20;99.90
42803;DHT22;28447;48.682;9.022;2023-08-07T13:41:11;18.40;99.90
42803;DHT22;28447;48.682;9.022;2023-08-07T13:43:37;20.10;99.90
42803;DHT22;28447;48.682;9.022;2023-08-07T13:46:03;19.90;99.90
42803;DHT22;28447;48.682;9.022;2023-08-07T13:48:28;20.30;99.90
42803;DHT22;28447;48.682;9.022;2023-08-07T13:50:54;21.30;99.90
42803;DHT22;28447;48.682;9.022;2023-08-07T13:53:20;20.10;99.90
42803;DHT22;28447;48.682;9.022;2023-08-07T13:55:47;19.40;99.90
42803;DHT22;28447;48.682;9.022;2023-08-07T13:58:13;19.40;99.90
42803;DHT22;28447;48.682;9.022;2023-08-07T14:00:41;21.20;98.70
42803;DHT22;28447;48.682;9.022;2023-08-07T14:03:08;20.20;98.60
42803;DHT22;28447;48.682;9.022;2023-08-07T14:05:34;21.40;98.70
42803;DHT22;28447;48.682;9.022;2023-08-07T14:08:00;19.90;98.40
42803;DHT22;28447;48.682;9.022;2023-08-07T14:10:26;19.30;99.90
42803;DHT22;28447;48.682;9.022;2023-08-07T14:12:51;20.60;97.00
42803;DHT22;28447;48.682;9.022;2023-08-07T14:15:18;19.80;99.30
42803;DHT22;28447;48.682;9.022;2023-08-07T14:17:44;19.10;99.50
42803;DHT22;28447;48.682;9.022;2023-08-07T14:20:10;20.00;98.50
42803;DHT22;28447;48.682;9.022;2023-08-07T14:22:36;19.50;99.70
42803;DHT22;28447;48.682;9.022;2023-08-07T14:25:03;20.50;97.30
42803;DHT22;28447;48.682;9.022;2023-08-07T14:27:30;20.00;97.80
42803;DHT22;28447;48.682;9.022;2023-08-07T14:29:56;19.60;98.50
42803;DHT22;28447;48.682;9.022;2023-08-07T14:32:21;19.40;99.10
42803;DHT22;28447;48.682;9.022;2023-08-07T14:34:48;18.60;99.70
42803;DHT22;28447;48.682;9.022;2023-08-07T14:37:14;18.10;99.90
42803;DHT22;28447;48.682;9.022;2023-08-07T14:39:40;18.00;99.90
42803;DHT22;28447;48.682;9.022;2023-08-07T14:42:06;17.60;99.90
42803;DHT22;28447;48.682;9.022;2023-08-07T14:44:32;17.60;99.90
42803;DHT22;28447;48.682;9.022;2023-08-07T14:46:58;17.40;99.90
42803;DHT22;28447;48.682;9.022;2023-08-07T14:49:24;17.30;99.90
42803;DHT22;28447;48.682;9.022;2023-08-07T14:51:50;17.00;99.90
42803;DHT22;28447;48.682;9.022;2023-08-07T14:54:15;16.90;99.90
42803;DHT22;28447;48.682;9.022;2023-08-07T14:56:41;16.60;99.90
42803;DHT22;28447;48.682;9.022;2023-08-07T14:59:06;16.60;99.90
42803;DHT22;28447;48.682;9.022;2023-08-07T15:01:32;16.60;99.90
42803;DHT22;28447;48.682;9.022;2023-08-07T15:03:58;16.50;99.90
42803;DHT22;28447;48.682;9.022;2023-08-07T15:06:23;16.90;99.90
42803;DHT22;28447;48.682;9.022;2023-08-07T15:08:49;17.00;99.90
42803;DHT22;28447;48.682;9.022;2023-08-07T15:11:15;17.20;99.90
42803;DHT22;28447;48.682;9.022;2023-08-07T15:13:40;17.30;99.90
42803;DHT22;28447;48.682;9.022;2023-08-07T15:16:06;17.60;99.90
42803;DHT22;28447;48.682;9.022;2023-08-07T15:18:32;18.10;99.90
42803;DHT22;28447;48.682;9.022;2023-08-07T15:20:59;20.00;99.30
42803;DHT22;28447;48.682;9.022;2023-08-07T15:23:26;20.10;99.50
42803;DHT22;28447;48.682;9.022;2023-08-07T15:25:52;19.70;98.50
42803;DHT22;28447;48.682;9.022;2023-08-07T15:28:18;18.50;99.90
42803;DHT22;28447;48.682;9.022;2023-08-07T15:30:48;18.30;99.90
42803;DHT22;28447;48.682;9.022;2023-08-07T15:33:15;18.60;99.90
42803;DHT22;28447;48.682;9.022;2023-08-07T15:35:42;18.10;99.90
42803;DHT22;28447;48.682;9.022;2023-08-07T15:38:08;17.90;99.90
42803;DHT22;28447;48.682;9.022;2023-08-07T15:40:40;17.70;99.90
42803;DHT22;28447;48.682;9.022;2023-08-07T15:43:07;17.70;99.90
42803;DHT22;28447;48.682;9.022;2023-08-07T15:45:33;17.80;99.90
42803;DHT22;28447;48.682;9.022;2023-08-07T15:47:59;17.70;99.90
42803;DHT22;28447;48.682;9.022;2023-08-07T15:50:24;17.60;99.90
42803;DHT22;28447;48.682;9.022;2023-08-07T15:52:50;17.30;99.90
42803;DHT22;28447;48.682;9.022;2023-08-07T15:55:16;17.50;99.90
42803;DHT22;28447;48.682;9.022;2023-08-07T15:57:41;17.30;99.90
42803;DHT22;28447;48.682;9.022;2023-08-07T16:00:08;17.50;99.90
42803;DHT22;28447;48.682;9.022;2023-08-07T16:02:35;17.30;99.90
42803;DHT22;28447;48.682;9.022;2023-08-07T16:05:01;17.20;99.90
42803;DHT22;28447;48.682;9.022;2023-08-07T16:07:27;17.50;99.90
42803;DHT22;28447;48.682;9.022;2023-08-07T16:09:54;17.30;99.90
42803;DHT22;28447;48.682;9.022;2023-08-07T16:12:20;17.50;99.90
42803;DHT22;28447;48.682;9.022;2023-08-07T16:14:46;17.60;99.90
42803;DHT22;28447;48.682;9.022;2023-08-07T16:17:14;17.50;99.90
42803;DHT22;28447;48.682;9.022;2023-08-07T16:19:40;17.90;99.90
42803;DHT22;28447;48.682;9.022;2023-08-07T16:22:05;18.70;99.90
42803;DHT22;28447;48.682;9.022;2023-08-07T16:24:32;18.60;99.90
42803;DHT22;28447;48.682;9.022;2023-08-07T16:26:59;18.90;99.90
42803;DHT22;28447;48.682;9.022;2023-08-07T16:29:25;19.20;99.60
42803;DHT22;28447;48.682;9.022;2023-08-07T16:31:51;18.60;99.90
42803;DHT22;28447;48.682;9.022;2023-08-07T16:34:18;18.60;99.90
42803;DHT22;28447;48.682;9.022;2023-08-07T16:36:44;19.00;99.90
42803;DHT22;28447;48.682;9.022;2023-08-07T16:39:10;19.50;99.90
42803;DHT22;28447;48.682;9.022;2023-08-07T16:41:35;18.90;99.90
42803;DHT22;28447;48.682;9.022;2023-08-07T16:44:01;18.80;99.90
42803;DHT22;28447;48.682;9.022;2023-08-07T16:46:27;18.50;99.90
42803;DHT22;28447;48.682;9.022;2023-08-07T16:48:53;18.20;99.90
42803;DHT22;28447;48.682;9.022;2023-08-07T16:51:19;17.80;99.90
42803;DHT22;28447;48.682;9.022;2023-08-07T16:53:45;17.30;99.90
42803;DHT22;28447;48.682;9.022;2023-08-07T16:56:13;17.30;99.90
42803;DHT22;28447;48.682;9.022;2023-08-07T16:58:39;17.10;99.90
42803;DHT22;28447;48.682;9.022;2023-08-07T17:01:06;17.00;99.90
42803;DHT22;28447;48.682;9.022;2023-08-07T17:03:31;16.80;99.90
42803;DHT22;28447;48.682;9.022;2023-08-07T17:05:57;16.70;99.90
42803;DHT22;28447;48.682;9.022;2023-08-07T17:08:23;16.70;99.90
42803;DHT22;28447;48.682;9.022;2023-08-07T17:10:50;16.70;99.90
42803;DHT22;28447;48.682;9.022;2023-08-07T17:13:15;17.00;99.90
42803;DHT22;28447;48.682;9.022;2023-08-07T17:15:41;17.10;99.90
42803;DHT22;28447;48.682;9.022;2023-08-07T17:18:08;17.30;99.90
42803;DHT22;28447;48.682;9.022;2023-08-07T17:20:33;17.10;99.90
42803;DHT22;28447;48.682;9.022;2023-08-07T17:22:59;17.30;99.90
42803;DHT22;28447;48.682;9.022;2023-08-07T17:25:25;17.40;99.90
42803;DHT22;28447;48.682;9.022;2023-08-07T17:27:50;17.30;99.90
42803;DHT22;28447;48.682;9.022;2023-08-07T17:30:16;17.10;99.90
42803;DHT22;28447;48.682;9.022;2023-08-07T17:32:42;17.30;99.90
42803;DHT22;28447;48.682;9.022;2023-08-07T17:35:07;17.20;99.90
42803;DHT22;28447;48.682;9.022;2023-08-07T17:37:33;17.30;99.90
42803;DHT22;28447;48.682;9.022;2023-08-07T17:39:59;17.40;99.90
42803;DHT22;28447;48.682;9.022;2023-08-07T17:42:24;17.30;99.90
42803;DHT22;28447;48.682;9.022;2023-08-07T17:44:50;17.20;99.90
42803;DHT22;28447;48.682;9.022;2023-08-07T17:47:16;17.30;99.90
42803;DHT22;28447;48.682;9.022;2023-08-07T17:49:41;17.20;99.90
42803;DHT22;28447;48.682;9.022;2023-08-07T17:52:08;16.90;99.90
42803;DHT22;28447;48.682;9.022;2023-08-07T17:54:34;16.90;99.90
42803;DHT22;28447;48.682;9.022;2023-08-07T17:57:02;16.80;99.90
42803;DHT22;28447;48.682;9.022;2023-08-07T17:59:28;16.70;99.90
42803;DHT22;28447;48.682;9.022;2023-08-07T18:01:54;16.70;99.90
42803;DHT22;28447;48.682;9.022;2023-08-07T18:04:19;16.60;99.90
42803;DHT22;28447;48.682;9.022;2023-08-07T18:06:45;16.50;99.90
42803;DHT22;28447;48.682;9.022;2023-08-07T18:09:11;16.40;99.90
42803;DHT22;28447;48.682;9.022;2023-08-07T18:11:37;16.40;99.90
42803;DHT22;28447;48.682;9.022;2023-08-07T18:14:03;16.30;99.90
42803;DHT22;28447;48.682;9.022;2023-08-07T18:16:29;16.30;99.90
42803;DHT22;28447;48.682;9.022;2023-08-07T18:18:54;16.20;99.90
42803;DHT22;28447;48.682;9.022;2023-08-07T18:21:21;16.20;99.90
42803;DHT22;28447;48.682;9.022;2023-08-07T18:23:48;16.10;99.90
42803;DHT22;28447;48.682;9.022;2023-08-07T18:26:15;16.00;99.90
42803;DHT22;28447;48.682;9.022;2023-08-07T18:28:41;16.00;99.90
42803;DHT22;28447;48.682;9.022;2023-08-07T18:31:06;15.90;99.90
42803;DHT22;28447;48.682;9.022;2023-08-07T18:33:32;15.80;99.90
42803;DHT22;28447;48.682;9.022;2023-08-07T18:35:59;15.80;99.90
42803;DHT22;28447;48.682;9.022;2023-08-07T18:38:26;15.70;99.90
42803;DHT22;28447;48.682;9.022;2023-08-07T18:40:52;15.60;99.90
42803;DHT22;28447;48.682;9.022;2023-08-07T18:43:18;15.60;99.90
42803;DHT22;28447;48.682;9.022;2023-08-07T18:45:43;15.50;99.90
42803;DHT22;28447;48.682;9.022;2023-08-07T18:48:09;15.40;99.90
42803;DHT22;28447;48.682;9.022;2023-08-07T18:50:35;15.40;99.90
42803;DHT22;28447;48.682;9.022;2023-08-07T18:53:00;15.20;99.90
42803;DHT22;28447;48.682;9.022;2023-08-07T18:55:26;15.20;99.90
42803;DHT22;28447;48.682;9.022;2023-08-07T18:57:52;15.10;99.90
42803;DHT22;28447;48.682;9.022;2023-08-07T19:00:18;15.10;99.90
42803;DHT22;28447;48.682;9.022;2023-08-07T19:02:43;15.00;99.90
42803;DHT22;28447;48.682;9.022;2023-08-07T19:05:09;15.10;99.90
42803;DHT22;28447;48.682;9.022;2023-08-07T19:07:35;15.10;99.90
42803;DHT22;28447;48.682;9.022;2023-08-07T19:10:03;15.00;99.90
42803;DHT22;28447;48.682;9.022;2023-08-07T19:12:29;15.10;99.90
42803;DHT22;28447;48.682;9.022;2023-08-07T19:14:55;15.10;99.90
42803;DHT22;28447;48.682;9.022;2023-08-07T19:17:20;15.10;99.90
42803;DHT22;28447;48.682;9.022;2023-08-07T19:19:46;15.00;99.90
42803;DHT22;28447;48.682;9.022;2023-08-07T19:22:12;15.10;99.90
42803;DHT22;28447;48.682;9.022;2023-08-07T19:24:38;15.10;99.90
42803;DHT22;28447;48.682;9.022;2023-08-07T19:27:03;15.10;99.90
42803;DHT22;28447;48.682;9.022;2023-08-07T19:29:29;15.10;99.90
42803;DHT22;28447;48.682;9.022;2023-08-07T19:31:55;15.10;99.90